Terminal Aerodrome Forecast
Issued by NWS Charleston, WV

Current Version | Previous Version | Graphics & Text | Print | Product List | Glossary On
Versions: 1 2 3 4 5 6 7 8 9 10 11 12 13 14 15 16 17 18 19 20 21 22 23 24
000
FTUS41 KRLX 081100
TAFCRW
TAF
KCRW 081134Z 0812/0912 21005KT P6SM SCT050
     FM081600 21014G21KT P6SM VCTS BKN040CB
     FM081800 22013G22KT 5SM TSRA BR BKN035CB
     FM090100 25008KT P6SM VCTS BKN035CB
     FM090600 26006KT P6SM BKN030
     FM090900 VRB03KT 5SM BR BKN025=

USA.gov is the U.S. government's official web portal to all federal, state and local government web resources and services.